createdAt,value
2019-03-30T00:02:03.906Z,8.10
2019-03-30T00:04:33.091Z,8.73
2019-03-30T00:07:02.384Z,8.50
2019-03-30T00:09:32.787Z,7.70
2019-03-30T00:12:02.145Z,8.60
2019-03-30T00:14:32.070Z,8.77
2019-03-30T00:17:01.457Z,9.20
2019-03-30T00:19:34.985Z,7.80
2019-03-30T00:22:02.320Z,9.20
2019-03-30T00:24:31.775Z,8.60
2019-03-30T00:27:01.174Z,7.60
2019-03-30T00:29:31.205Z,8.67
2019-03-30T00:32:00.810Z,8.30
2019-03-30T00:34:29.984Z,8.23
2019-03-30T00:36:59.509Z,9.80
2019-03-30T00:39:29.569Z,9.20
2019-03-30T00:41:58.732Z,9.43
2019-03-30T00:44:28.401Z,8.30
2019-03-30T00:46:57.839Z,8.10
2019-03-30T00:49:27.160Z,8.80
2019-03-30T00:51:56.389Z,9.30
2019-03-30T00:54:25.838Z,8.30
2019-03-30T00:56:55.104Z,7.93
2019-03-30T00:59:24.420Z,8.37
2019-03-30T01:01:54.103Z,8.47
2019-03-30T01:04:23.673Z,8.20
2019-03-30T01:06:53.120Z,8.60
2019-03-30T01:09:22.295Z,8.77
2019-03-30T01:11:52.122Z,8.00
2019-03-30T01:14:21.442Z,8.10
2019-03-30T01:16:50.925Z,8.30
2019-03-30T01:19:20.282Z,8.80
2019-03-30T01:21:49.781Z,7.70
2019-03-30T01:24:19.140Z,7.73
2019-03-30T01:26:48.931Z,8.27
2019-03-30T01:29:18.359Z,8.40
2019-03-30T01:31:47.837Z,8.77
2019-03-30T01:34:17.563Z,8.67
2019-03-30T01:36:47.279Z,7.77
2019-03-30T01:39:16.582Z,7.77
2019-03-30T01:41:45.771Z,8.40
2019-03-30T01:44:15.191Z,8.00
2019-03-30T01:46:44.465Z,9.00
2019-03-30T01:49:13.707Z,8.87
2019-03-30T01:51:43.080Z,8.27
2019-03-30T01:54:12.401Z,8.17
2019-03-30T01:56:41.789Z,8.60
2019-03-30T01:59:11.302Z,7.20
2019-03-30T02:01:40.904Z,8.13
2019-03-30T02:04:10.740Z,9.17
2019-03-30T02:06:40.618Z,8.33
2019-03-30T02:09:10.975Z,8.57
2019-03-30T02:11:40.891Z,8.23
2019-03-30T02:14:10.771Z,7.87
2019-03-30T02:16:40.272Z,8.80
2019-03-30T02:19:10.008Z,8.60
2019-03-30T02:21:39.383Z,7.57
2019-03-30T02:24:08.680Z,8.40
2019-03-30T02:26:38.045Z,7.27
2019-03-30T02:29:07.689Z,8.20
2019-03-30T02:31:37.322Z,9.27
2019-03-30T02:34:07.036Z,8.10
2019-03-30T02:36:36.816Z,7.97
2019-03-30T02:39:06.505Z,8.30
2019-03-30T02:41:35.824Z,7.77
2019-03-30T02:44:05.203Z,7.90
2019-03-30T02:46:34.961Z,7.60
2019-03-30T02:49:04.740Z,9.03
2019-03-30T02:51:34.437Z,8.33
2019-03-30T02:54:03.896Z,8.80
2019-03-30T02:56:33.648Z,9.27
2019-03-30T02:59:03.028Z,8.20
2019-03-30T03:01:32.794Z,7.90
2019-03-30T03:04:02.168Z,9.30
2019-03-30T03:06:31.462Z,8.17
2019-03-30T03:09:00.740Z,8.10
2019-03-30T03:11:30.059Z,9.20
2019-03-30T03:14:00.019Z,8.40
2019-03-30T03:16:29.898Z,8.97
2019-03-30T03:18:59.775Z,9.53
2019-03-30T03:21:29.539Z,8.00
2019-03-30T03:23:59.728Z,9.10
2019-03-30T03:26:29.220Z,8.37
2019-03-30T03:28:58.518Z,9.77
2019-03-30T03:31:27.985Z,9.13
2019-03-30T03:33:57.517Z,9.37
2019-03-30T03:36:27.175Z,9.30
2019-03-30T03:38:56.561Z,9.20
2019-03-30T03:41:25.927Z,8.90
2019-03-30T03:43:55.648Z,8.33
2019-03-30T03:46:25.045Z,8.80
2019-03-30T03:48:54.185Z,9.20
2019-03-30T03:51:26.803Z,8.57
2019-03-30T03:53:55.912Z,9.30
2019-03-30T03:56:26.019Z,8.93
2019-03-30T03:58:56.666Z,9.00
2019-03-30T04:01:26.404Z,9.97
2019-03-30T04:03:57.191Z,8.23
2019-03-30T04:06:28.025Z,9.13
2019-03-30T04:08:58.750Z,9.63
2019-03-30T04:11:29.099Z,10.13
2019-03-30T04:14:00.029Z,9.30
2019-03-30T04:16:29.336Z,9.80
2019-03-30T04:18:58.607Z,9.90
2019-03-30T04:21:42.902Z,10.03
2019-03-30T04:23:59.565Z,9.60
2019-03-30T04:26:29.726Z,10.00
2019-03-30T04:28:59.085Z,10.73
2019-03-30T04:31:28.397Z,10.80
2019-03-30T04:33:57.703Z,11.53
2019-03-30T04:36:27.086Z,8.93
2019-03-30T04:38:57.140Z,10.73
2019-03-30T04:41:26.502Z,10.00
2019-03-30T04:43:55.819Z,10.23
2019-03-30T04:46:25.105Z,10.17
2019-03-30T04:48:54.318Z,10.60
2019-03-30T04:51:23.674Z,12.20
2019-03-30T04:53:52.912Z,10.73
2019-03-30T04:56:22.911Z,9.47
2019-03-30T04:58:52.234Z,9.10
2019-03-30T05:01:21.512Z,10.10
2019-03-30T05:03:50.827Z,10.47
2019-03-30T05:06:20.386Z,11.20
2019-03-30T05:08:49.729Z,9.20
2019-03-30T05:11:19.318Z,11.00
2019-03-30T05:13:48.538Z,11.43
2019-03-30T05:16:18.152Z,10.40
2019-03-30T05:18:47.444Z,10.63
2019-03-30T05:21:17.230Z,10.10
2019-03-30T05:23:46.600Z,9.87
2019-03-30T05:26:15.831Z,10.03
2019-03-30T05:28:45.563Z,9.57
2019-03-30T05:31:14.839Z,10.20
2019-03-30T05:33:44.573Z,10.30
2019-03-30T05:36:14.138Z,10.40
2019-03-30T05:38:43.471Z,10.40
2019-03-30T05:41:12.661Z,9.87
2019-03-30T05:43:42.079Z,10.60
2019-03-30T05:46:11.336Z,11.00
2019-03-30T05:48:41.075Z,9.60
2019-03-30T05:51:10.559Z,9.40
2019-03-30T05:53:39.872Z,10.47
2019-03-30T05:56:09.261Z,9.90
2019-03-30T05:58:39.388Z,9.43
2019-03-30T06:01:08.668Z,9.40
2019-03-30T06:03:38.073Z,9.80
2019-03-30T06:06:07.375Z,9.53
2019-03-30T06:08:36.668Z,9.73
2019-03-30T06:11:06.019Z,10.03
2019-03-30T06:13:35.712Z,9.00
2019-03-30T06:16:04.978Z,10.50
2019-03-30T06:18:34.171Z,9.50
2019-03-30T06:21:03.680Z,9.30
2019-03-30T06:23:33.219Z,9.60
2019-03-30T06:26:03.027Z,10.00
2019-03-30T06:28:32.631Z,11.37
2019-03-30T06:31:02.002Z,9.33
2019-03-30T06:33:31.306Z,9.60
2019-03-30T06:36:01.022Z,9.93
2019-03-30T06:38:30.383Z,9.83
2019-03-30T06:41:00.036Z,10.07
2019-03-30T06:43:29.344Z,9.97
2019-03-30T06:45:58.944Z,9.77
2019-03-30T06:48:28.577Z,8.93
2019-03-30T06:50:58.262Z,10.10
2019-03-30T06:53:27.640Z,9.27
2019-03-30T06:55:57.033Z,10.57
2019-03-30T06:58:26.642Z,9.67
2019-03-30T07:00:56.357Z,10.23
2019-03-30T07:03:26.163Z,10.00
2019-03-30T07:43:52.742Z,8.20
2019-03-30T07:46:22.177Z,7.53
2019-03-30T07:48:51.542Z,8.30
2019-03-30T07:51:21.382Z,7.20
2019-03-30T07:53:50.940Z,7.90
2019-03-30T07:56:20.286Z,7.50
2019-03-30T08:13:45.045Z,7.60
2019-03-30T08:16:14.782Z,7.00
2019-03-30T08:28:38.243Z,6.10
2019-03-30T08:38:31.787Z,7.27
2019-03-30T08:41:01.680Z,7.23
2019-03-30T08:43:30.877Z,7.43
2019-03-30T08:46:00.398Z,7.97
2019-03-30T08:55:54.073Z,6.60
2019-03-30T09:20:36.145Z,5.90
2019-03-30T09:23:05.774Z,6.53
2019-03-30T09:25:35.337Z,6.65
2019-03-30T09:28:04.672Z,6.92
2019-03-30T09:30:34.151Z,7.17
2019-03-30T09:33:03.467Z,6.37
2019-03-30T09:35:32.852Z,6.53
2019-03-30T09:38:02.478Z,6.42
2019-03-30T09:40:31.864Z,7.00
2019-03-30T09:43:01.489Z,6.92
2019-03-30T09:45:30.766Z,6.78
2019-03-30T09:48:00.173Z,6.67
2019-03-30T09:50:29.568Z,7.37
2019-03-30T09:52:59.202Z,9.23
2019-03-30T09:55:29.404Z,9.33
2019-03-30T09:57:59.011Z,9.87
2019-03-30T10:00:28.482Z,10.10
2019-03-30T10:02:58.136Z,10.67
2019-03-30T10:05:27.417Z,10.77
2019-03-30T10:07:57.153Z,10.40
2019-03-30T10:10:26.420Z,10.37
2019-03-30T10:12:56.031Z,11.40
2019-03-30T10:15:25.619Z,11.90
2019-03-30T10:17:55.233Z,10.43
2019-03-30T10:20:24.951Z,11.00
2019-03-30T10:22:54.652Z,10.30
2019-03-30T10:25:23.947Z,9.70
2019-03-30T10:27:53.983Z,10.00
2019-03-30T10:30:23.682Z,9.70
2019-03-30T10:32:53.258Z,9.67
2019-03-30T10:35:22.889Z,10.63
2019-03-30T10:37:52.241Z,10.90
2019-03-30T10:40:21.669Z,9.37
2019-03-30T10:42:50.877Z,8.90
2019-03-30T10:45:20.489Z,9.60
2019-03-30T10:47:49.792Z,9.20
2019-03-30T10:50:19.537Z,9.50
2019-03-30T10:52:49.894Z,9.17
2019-03-30T10:55:19.244Z,8.13
2019-03-30T10:57:48.763Z,8.70
2019-03-30T11:00:27.551Z,8.57
2019-03-30T11:02:56.839Z,7.93
2019-03-30T11:05:27.313Z,7.80
2019-03-30T11:07:56.570Z,7.97
2019-03-30T11:10:26.480Z,8.00
2019-03-30T11:12:56.289Z,7.63
2019-03-30T11:15:25.614Z,8.00
2019-03-30T11:17:54.837Z,7.20
2019-03-30T11:20:24.113Z,7.50
2019-03-30T11:22:53.280Z,6.87
2019-03-30T11:25:23.018Z,7.30
2019-03-30T11:27:52.586Z,6.10
2019-03-30T11:30:21.944Z,6.63
2019-03-30T11:32:51.299Z,7.17
2019-03-30T11:35:20.650Z,6.27
2019-03-30T11:37:49.808Z,6.90
2019-03-30T11:40:19.442Z,7.17
2019-03-30T11:42:48.692Z,8.03
2019-03-30T11:45:18.536Z,7.63
2019-03-30T11:47:47.819Z,7.20
2019-03-30T11:50:17.556Z,7.37
2019-03-30T11:52:47.024Z,7.60
2019-03-30T11:55:22.033Z,9.20
2019-03-30T11:57:47.553Z,8.20
2019-03-30T12:00:16.888Z,8.30
2019-03-30T12:02:46.174Z,8.53
2019-03-30T12:05:15.876Z,7.53
2019-03-30T12:07:45.420Z,6.47
2019-03-30T12:10:14.675Z,7.97
2019-03-30T12:12:43.978Z,7.53
2019-03-30T12:15:13.794Z,6.77
2019-03-30T12:17:42.975Z,7.50
2019-03-30T12:20:12.292Z,8.13
2019-03-30T12:22:41.686Z,7.90
2019-03-30T12:25:11.190Z,8.27
2019-03-30T12:27:40.622Z,6.90
2019-03-30T12:30:09.999Z,7.70
2019-03-30T12:32:39.205Z,7.40
2019-03-30T12:35:08.586Z,7.90
2019-03-30T12:37:37.924Z,7.50
2019-03-30T12:40:07.392Z,7.87
2019-03-30T12:42:37.202Z,8.63
2019-03-30T12:45:06.393Z,7.87
2019-03-30T12:47:36.121Z,7.97
2019-03-30T12:50:05.715Z,9.23
2019-03-30T12:52:35.036Z,8.77
2019-03-30T12:55:04.342Z,8.03
2019-03-30T12:57:34.027Z,8.37
2019-03-30T13:00:03.312Z,8.57
2019-03-30T13:02:33.029Z,9.77
2019-03-30T13:05:03.032Z,9.10
2019-03-30T13:07:32.376Z,9.40
2019-03-30T13:10:02.153Z,8.20
2019-03-30T13:12:31.474Z,9.30
2019-03-30T13:15:00.751Z,8.93
2019-03-30T13:17:30.463Z,8.87
2019-03-30T13:19:59.861Z,9.03
2019-03-30T13:22:29.195Z,9.30
2019-03-30T13:24:58.474Z,10.30
2019-03-30T13:27:30.018Z,10.60
2019-03-30T13:29:59.324Z,10.90
2019-03-30T13:32:29.042Z,9.97
2019-03-30T13:34:58.519Z,10.50
2019-03-30T13:37:27.925Z,10.20
2019-03-30T13:39:59.483Z,10.00
2019-03-30T13:42:28.807Z,11.60
2019-03-30T13:44:58.406Z,10.23
2019-03-30T13:47:28.421Z,10.03
2019-03-30T13:49:58.134Z,9.80
2019-03-30T13:52:27.724Z,10.00
2019-03-30T13:54:57.007Z,10.33
2019-03-30T13:57:26.217Z,9.10
2019-03-30T13:59:55.802Z,8.50
2019-03-30T14:02:25.459Z,11.10
2019-03-30T14:04:55.257Z,10.93
2019-03-30T14:07:24.855Z,10.27
2019-03-30T14:09:54.267Z,10.17
2019-03-30T14:12:23.941Z,10.43
2019-03-30T14:14:53.266Z,9.40
2019-03-30T14:17:22.940Z,9.60
2019-03-30T14:19:52.260Z,10.43
2019-03-30T14:22:22.167Z,11.30
2019-03-30T14:24:51.575Z,9.80
2019-03-30T14:27:20.862Z,10.30
2019-03-30T14:29:50.101Z,10.70
2019-03-30T14:32:19.474Z,10.43
2019-03-30T14:34:49.518Z,11.27
2019-03-30T14:37:18.696Z,11.80
2019-03-30T14:39:47.985Z,10.93
2019-03-30T14:42:17.286Z,11.50
2019-03-30T14:44:46.705Z,11.60
2019-03-30T14:47:15.975Z,11.43
2019-03-30T14:49:45.503Z,11.40
2019-03-30T14:52:14.970Z,10.50
2019-03-30T14:54:52.615Z,10.03
2019-03-30T14:57:16.460Z,10.50
2019-03-30T14:59:45.758Z,10.10
2019-03-30T15:02:15.571Z,10.20
2019-03-30T15:04:44.863Z,11.20
2019-03-30T15:07:14.045Z,10.73
2019-03-30T15:09:43.786Z,9.17
2019-03-30T15:12:13.162Z,11.23
2019-03-30T15:14:42.793Z,10.37
2019-03-30T15:17:12.197Z,10.50
2019-03-30T15:19:41.886Z,11.30
2019-03-30T15:22:11.166Z,10.50
2019-03-30T15:24:41.009Z,9.90
2019-03-30T15:27:10.284Z,10.47
2019-03-30T15:29:39.602Z,9.37
2019-03-30T15:32:09.187Z,11.03
2019-03-30T15:34:38.911Z,9.50
2019-03-30T15:37:09.291Z,10.07
2019-03-30T15:39:38.637Z,9.30
2019-03-30T15:42:08.124Z,10.70
2019-03-30T15:44:37.421Z,8.90
2019-03-30T15:47:06.646Z,9.50
2019-03-30T15:49:36.043Z,9.90
2019-03-30T15:52:13.752Z,9.73
2019-03-30T15:54:37.360Z,9.50
2019-03-30T15:57:13.932Z,9.10
2019-03-30T15:59:37.533Z,9.20
2019-03-30T16:02:06.811Z,9.60
2019-03-30T16:04:37.860Z,9.43
2019-03-30T16:07:07.257Z,9.00
2019-03-30T16:09:36.550Z,9.47
2019-03-30T16:12:05.956Z,7.90
2019-03-30T16:14:35.242Z,9.83
2019-03-30T16:17:04.655Z,9.00
2019-03-30T16:19:33.856Z,9.10
2019-03-30T16:22:03.294Z,7.77
2019-03-30T16:24:32.759Z,10.40
2019-03-30T16:27:02.727Z,9.30
2019-03-30T16:29:32.096Z,9.10
2019-03-30T16:32:02.208Z,9.57
2019-03-30T16:36:59.651Z,8.90
2019-03-30T16:39:29.038Z,9.80
2019-03-30T16:41:59.342Z,8.60
2019-03-30T16:44:29.646Z,10.53
2019-03-30T16:46:59.314Z,8.77
2019-03-30T16:49:28.616Z,10.17
2019-03-30T16:51:58.018Z,9.27
2019-03-30T16:54:27.414Z,8.53
2019-03-30T16:56:56.995Z,9.20
2019-03-30T16:59:26.639Z,9.90
2019-03-30T17:01:55.893Z,8.20
2019-03-30T17:04:25.669Z,8.70
2019-03-30T17:06:55.225Z,9.23
2019-03-30T17:09:24.647Z,10.03
2019-03-30T17:11:54.141Z,8.33
2019-03-30T17:14:24.056Z,9.47
2019-03-30T17:16:53.800Z,9.17
2019-03-30T17:19:23.622Z,9.13
2019-03-30T17:21:53.384Z,9.63
2019-03-30T17:24:23.496Z,11.00
2019-03-30T17:26:53.448Z,11.27
2019-03-30T17:29:22.926Z,20.43
2019-03-30T17:31:52.300Z,17.93
2019-03-30T17:34:21.837Z,12.63
2019-03-30T17:36:51.211Z,28.20
2019-03-30T17:39:20.533Z,23.33
2019-03-30T17:41:50.704Z,14.03
2019-03-30T17:44:20.053Z,15.33
2019-03-30T17:46:49.357Z,10.67
2019-03-30T17:49:18.546Z,10.10
2019-03-30T17:51:48.279Z,10.57
2019-03-30T17:54:17.752Z,9.23
2019-03-30T17:56:47.135Z,9.97
2019-03-30T17:59:16.562Z,9.43
2019-03-30T18:01:46.234Z,10.07
2019-03-30T18:04:15.759Z,9.23
2019-03-30T18:06:45.512Z,10.67
2019-03-30T18:09:14.796Z,10.90
2019-03-30T18:11:44.806Z,9.50
2019-03-30T18:14:14.486Z,10.23
2019-03-30T18:16:44.140Z,9.93
2019-03-30T18:19:13.521Z,10.23
2019-03-30T18:21:42.712Z,9.67
2019-03-30T18:24:12.002Z,11.33
2019-03-30T18:26:41.347Z,10.77
2019-03-30T18:29:10.594Z,9.47
2019-03-30T18:31:40.127Z,12.03
2019-03-30T18:34:09.497Z,11.00
2019-03-30T18:36:39.217Z,12.93
2019-03-30T18:39:10.215Z,10.73
2019-03-30T18:41:39.693Z,12.87
2019-03-30T18:44:09.163Z,11.73
2019-03-30T18:46:38.475Z,15.00
2019-03-30T18:49:07.786Z,13.60
2019-03-30T18:51:37.451Z,13.90
2019-03-30T18:54:06.987Z,13.80
2019-03-30T18:56:36.280Z,15.27
2019-03-30T18:59:05.975Z,13.63
2019-03-30T19:01:35.276Z,12.33
2019-03-30T19:04:05.212Z,13.00
2019-03-30T19:06:34.697Z,12.30
2019-03-30T19:09:05.781Z,13.23
2019-03-30T19:11:35.444Z,13.47
2019-03-30T19:14:05.064Z,13.87
2019-03-30T19:16:34.997Z,11.77
2019-03-30T19:19:04.469Z,12.90
2019-03-30T19:21:33.757Z,12.40
2019-03-30T19:24:03.090Z,11.63
2019-03-30T19:26:32.388Z,13.33
2019-03-30T19:29:01.682Z,11.60
2019-03-30T19:31:30.975Z,12.30
2019-03-30T19:34:00.673Z,12.00
2019-03-30T19:36:31.397Z,12.80
2019-03-30T19:39:01.106Z,13.07
2019-03-30T19:41:30.644Z,13.23
2019-03-30T19:44:00.424Z,13.47
2019-03-30T19:46:30.441Z,13.50
2019-03-30T19:49:00.594Z,12.70
2019-03-30T19:51:30.154Z,14.30
2019-03-30T19:54:00.140Z,15.50
2019-03-30T19:56:30.012Z,15.53
2019-03-30T19:59:10.064Z,17.60
2019-03-30T20:01:30.257Z,14.27
2019-03-30T20:03:59.523Z,14.83
2019-03-30T20:06:29.364Z,15.40
2019-03-30T20:08:58.984Z,14.30
2019-03-30T20:11:28.773Z,14.77
2019-03-30T20:13:58.759Z,15.40
2019-03-30T20:16:28.092Z,15.67
2019-03-30T20:19:11.415Z,17.30
2019-03-30T20:21:29.052Z,17.27
2019-03-30T20:23:58.653Z,17.43
2019-03-30T20:26:28.336Z,16.30
2019-03-30T20:28:57.969Z,15.03
2019-03-30T20:31:27.577Z,15.40
2019-03-30T20:33:57.355Z,16.33
2019-03-30T20:36:26.686Z,14.23
2019-03-30T20:38:56.749Z,14.17
2019-03-30T20:41:26.208Z,18.20
2019-03-30T20:43:55.474Z,16.30
2019-03-30T20:46:25.213Z,17.77
2019-03-30T20:48:54.924Z,16.47
2019-03-30T20:51:24.622Z,14.63
2019-03-30T20:53:54.301Z,15.97
2019-03-30T20:56:24.144Z,15.00
2019-03-30T20:58:53.313Z,15.70
2019-03-30T21:01:23.146Z,15.47
2019-03-30T21:03:52.417Z,15.13
2019-03-30T21:06:21.723Z,16.40
2019-03-30T21:08:52.185Z,15.00
2019-03-30T21:11:21.598Z,15.53
2019-03-30T21:13:51.694Z,17.20
2019-03-30T21:16:21.488Z,21.93
2019-03-30T21:18:51.457Z,15.70
2019-03-30T21:21:20.797Z,15.17
2019-03-30T21:23:51.071Z,14.53
2019-03-30T21:26:22.060Z,14.57
2019-03-30T21:28:51.999Z,15.20
2019-03-30T21:31:22.291Z,14.37
2019-03-30T21:33:51.591Z,14.77
2019-03-30T21:36:21.100Z,14.63
2019-03-30T21:38:50.950Z,16.60
2019-03-30T21:41:20.325Z,16.83
2019-03-30T21:43:51.310Z,15.70
2019-03-30T21:46:21.091Z,17.43
2019-03-30T21:48:51.112Z,16.23
2019-03-30T21:51:20.717Z,14.97
2019-03-30T21:53:50.920Z,16.57
2019-03-30T21:56:20.321Z,18.30
2019-03-30T21:58:50.404Z,16.80
2019-03-30T22:01:19.941Z,17.00
2019-03-30T22:03:49.232Z,17.00
2019-03-30T22:06:18.534Z,17.90
2019-03-30T22:08:49.311Z,18.67
2019-03-30T22:11:18.966Z,17.57
2019-03-30T22:13:48.243Z,17.73
2019-03-30T22:16:17.453Z,18.20
2019-03-30T22:18:47.171Z,19.10
2019-03-30T22:21:16.469Z,18.07
2019-03-30T22:23:45.726Z,18.47
2019-03-30T22:26:15.036Z,18.67
2019-03-30T22:28:44.908Z,17.43
2019-03-30T22:31:14.275Z,18.63
2019-03-30T22:33:44.066Z,19.53
2019-03-30T22:36:13.526Z,20.10
2019-03-30T22:38:45.211Z,19.27
2019-03-30T22:41:14.864Z,19.50
2019-03-30T22:43:44.943Z,19.27
2019-03-30T22:46:15.231Z,18.37
2019-03-30T22:48:46.627Z,19.40
2019-03-30T22:51:15.972Z,20.10
2019-03-30T22:53:45.597Z,20.00
2019-03-30T22:56:15.360Z,20.77
2019-03-30T22:58:45.095Z,20.67
2019-03-30T23:01:16.511Z,19.27
2019-03-30T23:03:46.421Z,19.47
2019-03-30T23:06:15.954Z,20.00
2019-03-30T23:08:45.427Z,20.40
2019-03-30T23:11:14.822Z,19.63
2019-03-30T23:13:44.998Z,21.73
2019-03-30T23:16:14.875Z,22.40
2019-03-30T23:18:45.474Z,22.47
2019-03-30T23:21:15.229Z,21.53
2019-03-30T23:23:45.237Z,21.47
2019-03-30T23:26:15.979Z,19.60
2019-03-30T23:28:45.959Z,20.77
2019-03-30T23:31:15.259Z,19.53
2019-03-30T23:33:45.619Z,18.53
2019-03-30T23:36:15.390Z,20.57
2019-03-30T23:38:44.702Z,22.00
2019-03-30T23:41:14.749Z,20.63
2019-03-30T23:43:44.662Z,20.30
2019-03-30T23:46:14.396Z,22.93
2019-03-30T23:48:44.279Z,22.93
2019-03-30T23:51:13.977Z,23.83
2019-03-30T23:53:43.421Z,19.10
2019-03-30T23:56:22.718Z,21.90
2019-03-30T23:58:52.105Z,20.37
